This is the latest recevied weather packets stored in our database for station/object KD0KHX-10. If no packets are shown the sender has not sent any weather packets the latest 10 day(s).
| Time | Temp. | Humidity | Pressure | Rain* | Wind** | Luminosity | Snow |
|---|---|---|---|---|---|---|---|
| 1777795938 | 11.11° C | 45% | 1008.9 hPa | 0 mm | - | - | - |
| 1777795503 | 10.56° C | 45% | 1008.9 hPa | 0 mm | - | - | - |
| 1777795473 | 10.56° C | 45% | 1008.9 hPa | 0 mm | - | - | - |
| 1777795037 | 10.56° C | 45% | 1008.9 hPa | 0 mm | - | - | - |
| 1777794003 | 11.11° C | 44% | 1009 hPa | 0 mm | - | - | - |
| 1777793836 | 11.11° C | 43% | 1009 hPa | 0 mm | - | - | - |
| 1777793403 | 11.11° C | 43% | 1009.1 hPa | 0 mm | - | - | - |
| 1777793372 | 11.11° C | 43% | 1009.1 hPa | 0 mm | - | - | - |
| 1777792803 | 11.11° C | 42% | 1009.2 hPa | 0 mm | - | - | - |
| 1777792503 | 11.11° C | 42% | 1009.2 hPa | 0 mm | - | - | - |
| 1777792203 | 11.11° C | 42% | 1009.2 hPa | 0 mm | - | - | - |
| 1777792038 | 11.11° C | 42% | 1009.2 hPa | 0 mm | - | - | - |
| 1777791603 | 11.11° C | 43% | 1009.3 hPa | 0 mm | - | - | - |
| 1777791438 | 11.11° C | 43% | 1009.4 hPa | 0 mm | - | - | - |
| 1777791003 | 11.11° C | 43% | 1009.4 hPa | 0 mm | - | - | - |
| 1777790537 | 10.56° C | 44% | 1009.4 hPa | 0 mm | - | - | - |
| 1777790103 | 10° C | 46% | 1009.4 hPa | 0 mm | - | - | - |
| 1777789937 | 10° C | 47% | 1009.4 hPa | 0 mm | - | - | - |
| 1777789773 | 9.44° C | 47% | 1009.4 hPa | 0 mm | - | - | - |
| 1777789472 | 10° C | 45% | 1009.4 hPa | 0 mm | - | - | - |
| 1777788903 | 11.67° C | 41% | 1009.4 hPa | 0 mm | - | - | - |
| 1777788603 | 11.67° C | 41% | 1009.4 hPa | 0 mm | - | - | - |
| 1777788573 | 11.67° C | 41% | 1009.4 hPa | 0 mm | - | - | - |
| 1777788272 | 11.67° C | 42% | 1009.3 hPa | 0 mm | - | - | - |
| 1777787703 | 11.11° C | 43% | 1009.3 hPa | 0 mm | - | - | - |
* Rain latest hour (hover to see other rain measurements)
** Current wind speed in m/s (hover to see current wind gust speed)